Time;durP1;ratioP1;P1;durP2;ratioP2;P2;SDS_P1;SDS_P2;PMS_P1;PMS_P2;Temp;Humidity;BMP_temperature;BMP_pressure;BME280_temperature;BME280_humidity;BME280_pressure;Samples;Min_cycle;Max_cycle;Signal;HPM_P1;HPM_P2
2023/03/29 00:00:19;;;;;;;;;;;4.80;99.90;;;;;;5112634;27;1905;-69
2023/03/29 00:02:47;;;;;;;;;;;4.80;99.90;;;;;;5111381;28;1217;-69
2023/03/29 00:05:13;;;;;;;;;;;4.80;99.90;;;;;;5094225;28;1796;-69
2023/03/29 00:07:40;;;;;;;;;;;4.90;99.90;;;;;;5112012;28;1119;-69
2023/03/29 00:10:06;;;;;;;;;;;4.90;99.90;;;;;;5111502;28;1124;-69
2023/03/29 00:12:32;;;;;;;;;;;4.90;99.90;;;;;;5112063;28;1290;-69
2023/03/29 00:14:57;;;;;;;;;;;4.90;99.90;;;;;;5077650;28;1090;-69
2023/03/29 00:17:23;;;;;;;;;;;4.90;99.90;;;;;;5096850;28;1297;-69
2023/03/29 00:19:49;;;;;;;;;;;4.90;99.90;;;;;;5093882;28;1965;-69
2023/03/29 00:22:15;;;;;;;;;;;5.00;99.90;;;;;;5112460;28;1296;-69
2023/03/29 00:24:41;;;;;;;;;;;4.90;99.90;;;;;;5110982;28;1187;-69
2023/03/29 00:27:06;;;;;;;;;;;4.90;99.90;;;;;;5112394;28;1282;-69
2023/03/29 00:29:32;;;;;;;;;;;4.90;99.90;;;;;;5132340;27;1163;-69
2023/03/29 00:31:58;;;;;;;;;;;4.90;99.90;;;;;;5131542;27;1170;-69
2023/03/29 00:34:25;;;;;;;;;;;5.00;99.90;;;;;;5123267;27;1107;-69
2023/03/29 00:36:51;;;;;;;;;;;5.00;99.90;;;;;;5111861;28;997;-69
2023/03/29 00:39:19;;;;;;;;;;;5.00;99.90;;;;;;5110900;28;1910;-69
2023/03/29 00:41:45;;;;;;;;;;;5.00;99.90;;;;;;5112061;28;1128;-69
2023/03/29 00:44:30;;;;;;;;;;;5.00;99.90;;;;;;5111164;28;1274;-69
2023/03/29 00:46:56;;;;;;;;;;;5.00;99.90;;;;;;5127511;27;1116;-69
2023/03/29 00:49:21;;;;;;;;;;;5.00;99.90;;;;;;5093104;28;1184;-69
2023/03/29 00:51:47;;;;;;;;;;;5.00;99.90;;;;;;5091983;28;1198;-69
2023/03/29 00:54:14;;;;;;;;;;;4.90;99.90;;;;;;5111316;28;1096;-69
2023/03/29 00:56:41;;;;;;;;;;;4.90;99.90;;;;;;5092939;28;1113;-69
2023/03/29 00:59:12;;;;;;;;;;;4.90;99.90;;;;;;5110939;28;1977;-69
2023/03/29 01:01:41;;;;;;;;;;;4.90;99.90;;;;;;5110849;28;1140;-69
2023/03/29 01:04:16;;;;;;;;;;;4.90;99.90;;;;;;5111222;28;1274;-69
2023/03/29 01:06:45;;;;;;;;;;;4.90;99.90;;;;;;5110612;28;1286;-69
2023/03/29 01:09:12;;;;;;;;;;;4.90;99.90;;;;;;5110705;28;1156;-69
2023/03/29 01:11:40;;;;;;;;;;;4.90;99.90;;;;;;5075930;28;1310;-69
2023/03/29 01:14:09;;;;;;;;;;;4.90;99.90;;;;;;5092226;28;1125;-69
2023/03/29 01:16:37;;;;;;;;;;;5.00;99.90;;;;;;5092619;28;1148;-69
2023/03/29 01:19:04;;;;;;;;;;;5.00;99.90;;;;;;5092587;28;1913;-69
2023/03/29 01:21:32;;;;;;;;;;;5.00;99.90;;;;;;5092509;28;1108;-69
2023/03/29 01:24:05;;;;;;;;;;;5.00;99.90;;;;;;5092378;28;1108;-69
2023/03/29 01:26:32;;;;;;;;;;;5.00;99.90;;;;;;5092289;28;1311;-69
2023/03/29 01:29:01;;;;;;;;;;;5.00;99.90;;;;;;5126376;27;1036;-69
2023/03/29 01:31:28;;;;;;;;;;;5.00;99.90;;;;;;5110541;28;1100;-69
2023/03/29 01:33:59;;;;;;;;;;;5.10;99.90;;;;;;5109924;28;1081;-69
2023/03/29 01:36:30;;;;;;;;;;;5.00;99.90;;;;;;5087010;28;1254;-69
2023/03/29 01:38:57;;;;;;;;;;;5.00;99.90;;;;;;5123521;27;1906;-69
2023/03/29 01:41:27;;;;;;;;;;;5.00;99.90;;;;;;5110227;28;1140;-69
2023/03/29 01:44:00;;;;;;;;;;;5.00;99.90;;;;;;5092288;28;1387;-69
2023/03/29 01:46:30;;;;;;;;;;;5.00;99.90;;;;;;5102775;28;1219;-69
2023/03/29 01:48:58;;;;;;;;;;;5.00;99.90;;;;;;5074791;28;1101;-69
2023/03/29 01:51:30;;;;;;;;;;;5.00;99.90;;;;;;5092233;28;1061;-69
2023/03/29 01:54:00;;;;;;;;;;;5.00;99.90;;;;;;5109668;28;1220;-69
2023/03/29 01:56:28;;;;;;;;;;;5.10;99.90;;;;;;5091551;28;1085;-69
2023/03/29 01:58:58;;;;;;;;;;;5.10;99.90;;;;;;5092038;28;1977;-69
2023/03/29 02:01:26;;;;;;;;;;;5.10;99.90;;;;;;5108906;28;1089;-69
2023/03/29 02:03:53;;;;;;;;;;;5.00;99.90;;;;;;5108836;28;1098;-69
2023/03/29 02:06:21;;;;;;;;;;;5.00;99.90;;;;;;5092388;28;1229;-69
2023/03/29 02:08:47;;;;;;;;;;;5.00;99.90;;;;;;5074681;28;1102;-69
2023/03/29 02:11:13;;;;;;;;;;;5.00;99.90;;;;;;5090409;28;1132;-69
2023/03/29 02:13:39;;;;;;;;;;;5.00;99.90;;;;;;5110250;28;1623;-69
2023/03/29 02:16:10;;;;;;;;;;;5.00;99.90;;;;;;5090703;28;1140;-69
2023/03/29 02:18:38;;;;;;;;;;;5.00;99.90;;;;;;5110262;28;1967;-69
2023/03/29 02:21:04;;;;;;;;;;;5.10;99.90;;;;;;5109711;28;1174;-69
2023/03/29 02:23:33;;;;;;;;;;;5.20;99.90;;;;;;5109359;28;1096;-69
2023/03/29 02:25:59;;;;;;;;;;;5.20;99.90;;;;;;5091718;28;1101;-69
2023/03/29 02:28:25;;;;;;;;;;;5.20;99.90;;;;;;5108291;28;1088;-69
2023/03/29 02:31:01;;;;;;;;;;;5.30;99.90;;;;;;5090958;28;1081;-69
2023/03/29 02:33:33;;;;;;;;;;;5.30;99.90;;;;;;5125388;27;1207;-69
2023/03/29 02:36:06;;;;;;;;;;;5.20;99.90;;;;;;5088255;28;1215;-69
2023/03/29 02:38:33;;;;;;;;;;;5.30;99.90;;;;;;5101917;28;1910;-69
2023/03/29 02:40:59;;;;;;;;;;;5.20;99.90;;;;;;5109632;28;1200;-69
2023/03/29 02:43:26;;;;;;;;;;;5.20;99.90;;;;;;5091671;28;1339;-69
2023/03/29 02:45:52;;;;;;;;;;;5.20;99.90;;;;;;5108740;28;1235;-69
2023/03/29 02:48:19;;;;;;;;;;;5.20;99.90;;;;;;5091001;28;1197;-69
2023/03/29 02:50:47;;;;;;;;;;;5.20;99.90;;;;;;5091262;28;1124;-69
2023/03/29 02:53:15;;;;;;;;;;;5.10;99.90;;;;;;5108834;28;1108;-69
2023/03/29 02:55:44;;;;;;;;;;;5.20;99.90;;;;;;5091204;28;1560;-69
2023/03/29 02:58:12;;;;;;;;;;;5.10;99.90;;;;;;5108957;28;1150;-69
2023/03/29 03:00:39;;;;;;;;;;;5.10;99.90;;;;;;5090587;28;1971;-69
2023/03/29 03:03:06;;;;;;;;;;;5.10;99.90;;;;;;5109260;28;1266;-69
2023/03/29 03:05:32;;;;;;;;;;;5.10;99.90;;;;;;5113432;28;1247;-69
2023/03/29 03:07:58;;;;;;;;;;;5.10;99.90;;;;;;5090525;28;1089;-70
2023/03/29 03:10:24;;;;;;;;;;;5.00;99.90;;;;;;5091657;28;1112;-70
2023/03/29 03:12:50;;;;;;;;;;;5.00;99.90;;;;;;5089436;28;1299;-69
2023/03/29 03:15:16;;;;;;;;;;;5.00;99.90;;;;;;5117642;27;1218;-69
2023/03/29 03:17:42;;;;;;;;;;;5.00;99.90;;;;;;5095419;28;1291;-69
2023/03/29 03:20:11;;;;;;;;;;;5.10;99.90;;;;;;5094727;28;1910;-69
2023/03/29 03:22:56;;;;;;;;;;;5.10;99.90;;;;;;5108856;28;1829;-69
2023/03/29 03:25:22;;;;;;;;;;;5.10;99.90;;;;;;5112051;28;2042;-69
2023/03/29 03:27:49;;;;;;;;;;;5.20;99.90;;;;;;5094252;28;1228;-69
2023/03/29 03:30:16;;;;;;;;;;;5.20;99.90;;;;;;5078110;28;1081;-69
2023/03/29 03:32:45;;;;;;;;;;;5.20;99.90;;;;;;5112908;28;1237;-69
2023/03/29 03:35:38;;;;;;;;;;;5.20;99.90;;;;;;5093724;28;1167;-69
2023/03/29 03:38:04;;;;;;;;;;;5.20;99.90;;;;;;5077574;28;1157;-69
2023/03/29 03:40:31;;;;;;;;;;;5.20;99.90;;;;;;5105452;28;1906;-69
2023/03/29 03:42:57;;;;;;;;;;;5.20;99.90;;;;;;5094459;28;1326;-69
2023/03/29 03:45:23;;;;;;;;;;;5.20;99.90;;;;;;5094545;28;1254;-69
2023/03/29 03:47:54;;;;;;;;;;;5.20;99.90;;;;;;5094330;28;970;-69
2023/03/29 03:50:48;;;;;;;;;;;5.20;99.90;;;;;;5099999;28;1248;-69
2023/03/29 03:53:14;;;;;;;;;;;5.10;99.90;;;;;;5094376;28;1117;-70
2023/03/29 03:56:01;;;;;;;;;;;5.20;99.90;;;;;;5111923;28;1112;-69
2023/03/29 03:58:32;;;;;;;;;;;5.20;99.90;;;;;;5102359;28;1913;-69
2023/03/29 04:00:58;;;;;;;;;;;5.20;99.90;;;;;;5094290;28;1147;-69
2023/03/29 04:03:36;;;;;;;;;;;5.20;99.90;;;;;;5111738;28;1096;-69
2023/03/29 04:06:02;;;;;;;;;;;5.10;99.90;;;;;;5094026;28;1438;-69
2023/03/29 04:08:41;;;;;;;;;;;5.20;99.90;;;;;;5110810;28;1231;-69
2023/03/29 04:11:11;;;;;;;;;;;5.20;99.90;;;;;;5094248;28;1169;-69
2023/03/29 04:13:40;;;;;;;;;;;5.20;99.90;;;;;;5110809;28;1729;-69
2023/03/29 04:16:32;;;;;;;;;;;5.30;99.90;;;;;;5110861;28;1264;-69
2023/03/29 04:19:12;;;;;;;;;;;5.30;99.90;;;;;;5093761;28;1985;-69
2023/03/29 04:21:39;;;;;;;;;;;5.30;99.90;;;;;;5128145;27;1123;-70
2023/03/29 04:24:05;;;;;;;;;;;5.30;99.90;;;;;;5092483;28;1249;-70
2023/03/29 04:26:33;;;;;;;;;;;5.30;99.90;;;;;;5093337;28;1260;-70
2023/03/29 04:29:11;;;;;;;;;;;5.30;99.90;;;;;;5127496;27;1131;-69
2023/03/29 04:31:44;;;;;;;;;;;5.30;99.90;;;;;;5093345;28;1101;-69
2023/03/29 04:34:21;;;;;;;;;;;5.20;99.90;;;;;;5087603;28;1278;-69
2023/03/29 04:36:51;;;;;;;;;;;5.20;99.90;;;;;;5089351;28;1132;-69
2023/03/29 04:39:21;;;;;;;;;;;5.20;99.90;;;;;;5113830;27;2058;-69
2023/03/29 04:41:52;;;;;;;;;;;5.30;99.90;;;;;;5095460;28;1474;-69
2023/03/29 04:44:22;;;;;;;;;;;5.20;99.90;;;;;;5075962;28;1629;-69
2023/03/29 04:46:48;;;;;;;;;;;5.30;99.90;;;;;;5093637;28;1097;-69
2023/03/29 04:49:33;;;;;;;;;;;5.30;99.90;;;;;;5076782;28;1169;-69
2023/03/29 04:51:59;;;;;;;;;;;5.30;99.90;;;;;;5091891;28;1164;-69
2023/03/29 04:54:28;;;;;;;;;;;5.30;99.90;;;;;;5093270;28;1091;-69
2023/03/29 04:57:00;;;;;;;;;;;5.40;99.90;;;;;;5093513;28;1136;-69
2023/03/29 04:59:39;;;;;;;;;;;5.40;99.90;;;;;;5091682;28;2021;-69
2023/03/29 05:02:16;;;;;;;;;;;5.40;99.90;;;;;;5104841;28;1320;-69
2023/03/29 05:04:45;;;;;;;;;;;5.40;99.90;;;;;;5092691;28;1231;-69
2023/03/29 05:07:14;;;;;;;;;;;5.40;99.90;;;;;;5093025;28;1734;-69
2023/03/29 05:09:41;;;;;;;;;;;5.40;99.90;;;;;;5093981;28;1039;-69
2023/03/29 05:12:08;;;;;;;;;;;5.40;99.90;;;;;;5092655;28;1342;-69
2023/03/29 05:14:46;;;;;;;;;;;5.40;99.90;;;;;;5092345;28;1164;-69
2023/03/29 05:17:11;;;;;;;;;;;5.40;99.90;;;;;;5075409;28;1172;-69
2023/03/29 05:19:37;;;;;;;;;;;5.40;99.90;;;;;;5126455;27;1929;-70
2023/03/29 05:22:03;;;;;;;;;;;5.40;99.90;;;;;;5092435;28;1116;-69
2023/03/29 05:24:30;;;;;;;;;;;5.50;99.90;;;;;;5093065;28;1017;-70
2023/03/29 05:26:59;;;;;;;;;;;5.40;99.90;;;;;;5091496;28;1261;-70
2023/03/29 05:29:28;;;;;;;;;;;5.60;99.90;;;;;;5126437;27;1099;-70
2023/03/29 05:32:07;;;;;;;;;;;5.40;99.90;;;;;;5075520;28;1128;-69
2023/03/29 05:34:33;;;;;;;;;;;5.50;99.90;;;;;;5091403;28;1103;-70
2023/03/29 05:37:01;;;;;;;;;;;5.50;99.90;;;;;;5089867;28;1202;-69
2023/03/29 05:39:32;;;;;;;;;;;5.50;99.90;;;;;;5092307;28;1974;-69
2023/03/29 05:41:59;;;;;;;;;;;5.50;99.90;;;;;;5091925;28;1108;-70
2023/03/29 05:44:29;;;;;;;;;;;5.50;99.90;;;;;;5109490;28;1560;-70
2023/03/29 05:47:03;;;;;;;;;;;5.50;99.90;;;;;;5092053;28;1121;-70
2023/03/29 05:49:29;;;;;;;;;;;5.50;99.90;;;;;;5075133;28;1128;-70
2023/03/29 05:52:05;;;;;;;;;;;5.60;99.90;;;;;;5091626;28;1203;-70
2023/03/29 05:54:32;;;;;;;;;;;5.50;99.90;;;;;;5125805;27;1119;-70
2023/03/29 05:56:58;;;;;;;;;;;5.50;99.90;;;;;;5108887;28;1176;-70
2023/03/29 05:59:27;;;;;;;;;;;5.50;99.90;;;;;;5092033;28;1979;-70
2023/03/29 06:01:53;;;;;;;;;;;5.60;99.90;;;;;;5093779;28;1128;-70
2023/03/29 06:04:20;;;;;;;;;;;5.50;99.90;;;;;;5091781;28;1586;-70
2023/03/29 06:07:17;;;;;;;;;;;5.50;99.90;;;;;;5109969;28;1659;-70
2023/03/29 06:09:55;;;;;;;;;;;5.50;99.90;;;;;;5090203;28;1556;-70
2023/03/29 06:12:23;;;;;;;;;;;5.50;99.90;;;;;;5074485;28;1272;-70
2023/03/29 06:15:02;;;;;;;;;;;5.50;99.90;;;;;;5091774;28;1071;-70
2023/03/29 06:17:34;;;;;;;;;;;5.50;99.90;;;;;;5091118;28;1187;-70
2023/03/29 06:20:01;;;;;;;;;;;5.50;99.90;;;;;;5094350;28;1964;-70
2023/03/29 06:22:28;;;;;;;;;;;5.50;99.90;;;;;;5091409;28;1254;-70
2023/03/29 06:24:54;;;;;;;;;;;5.50;99.90;;;;;;5091769;28;1183;-70
2023/03/29 06:27:23;;;;;;;;;;;5.50;99.90;;;;;;5075210;28;1256;-70
2023/03/29 06:29:50;;;;;;;;;;;5.50;99.90;;;;;;5085257;28;1225;-70
2023/03/29 06:32:16;;;;;;;;;;;5.60;99.90;;;;;;5091272;28;1803;-70
2023/03/29 06:34:46;;;;;;;;;;;5.60;99.90;;;;;;5091360;28;1124;-70
2023/03/29 06:37:26;;;;;;;;;;;5.60;99.90;;;;;;5089929;28;1208;-70
2023/03/29 06:40:04;;;;;;;;;;;5.60;99.90;;;;;;5091141;28;1906;-70
2023/03/29 06:42:36;;;;;;;;;;;5.60;99.90;;;;;;5090871;28;1225;-70
2023/03/29 06:45:21;;;;;;;;;;;5.60;99.90;;;;;;5104962;28;1066;-70
2023/03/29 06:47:49;;;;;;;;;;;5.70;99.90;;;;;;5124881;27;1163;-70
2023/03/29 06:50:16;;;;;;;;;;;5.70;99.90;;;;;;5124696;27;1099;-70
2023/03/29 06:52:51;;;;;;;;;;;5.70;99.90;;;;;;5090176;28;2293;-70
2023/03/29 06:55:17;;;;;;;;;;;5.70;99.90;;;;;;5107702;28;3755;-70
2023/03/29 06:57:43;;;;;;;;;;;5.70;99.90;;;;;;5097633;28;1066;-70
2023/03/29 07:00:17;;;;;;;;;;;5.80;99.90;;;;;;5090894;28;3644;-70
2023/03/29 07:03:05;;;;;;;;;;;5.80;99.90;;;;;;5090334;28;1256;-70
2023/03/29 07:05:32;;;;;;;;;;;5.90;99.90;;;;;;5123366;28;1349;-70
2023/03/29 07:08:01;;;;;;;;;;;6.20;99.90;;;;;;5124938;28;1304;-70
2023/03/29 07:10:47;;;;;;;;;;;6.00;99.90;;;;;;5091411;28;1093;-70
2023/03/29 07:13:31;;;;;;;;;;;6.00;99.90;;;;;;5107814;28;1486;-70
2023/03/29 07:16:00;;;;;;;;;;;6.10;99.90;;;;;;5091159;28;1141;-70
2023/03/29 07:18:44;;;;;;;;;;;6.20;99.90;;;;;;5108483;28;2024;-70
2023/03/29 07:21:16;;;;;;;;;;;6.20;99.90;;;;;;5091189;28;1129;-70
2023/03/29 07:23:42;;;;;;;;;;;6.30;99.90;;;;;;5091179;28;1148;-70
2023/03/29 07:26:08;;;;;;;;;;;6.40;99.90;;;;;;5090200;28;1228;-70
2023/03/29 07:28:38;;;;;;;;;;;6.50;99.90;;;;;;5090526;28;1092;-70
2023/03/29 07:31:06;;;;;;;;;;;6.40;99.90;;;;;;5108739;28;1124;-70
2023/03/29 07:33:35;;;;;;;;;;;6.50;99.90;;;;;;5090051;28;1202;-70
2023/03/29 07:36:04;;;;;;;;;;;6.60;99.90;;;;;;5089869;28;1148;-70
2023/03/29 07:38:31;;;;;;;;;;;6.70;99.90;;;;;;5090022;28;1938;-70
2023/03/29 07:41:03;;;;;;;;;;;6.70;99.90;;;;;;5076424;28;1105;-70
2023/03/29 07:43:43;;;;;;;;;;;6.80;99.90;;;;;;5090910;28;1340;-70
2023/03/29 07:46:11;;;;;;;;;;;6.90;99.90;;;;;;5090818;28;1296;-70
2023/03/29 07:48:38;;;;;;;;;;;6.90;99.90;;;;;;5101969;28;1171;-70
2023/03/29 07:51:06;;;;;;;;;;;7.00;99.90;;;;;;5120834;27;3725;-75
2023/03/29 07:53:40;;;;;;;;;;;7.20;99.90;;;;;;5087788;28;2979;-76
2023/03/29 07:56:20;;;;;;;;;;;7.40;99.90;;;;;;5089768;28;3110;-71
2023/03/29 07:58:50;;;;;;;;;;;7.40;99.90;;;;;;5124639;28;1999;-71
2023/03/29 08:01:18;;;;;;;;;;;7.60;99.90;;;;;;5100725;28;1087;-71
2023/03/29 08:04:09;;;;;;;;;;;7.50;99.90;;;;;;5093724;28;1254;-71
2023/03/29 08:07:05;;;;;;;;;;;7.50;99.90;;;;;;5098236;28;1407;-71
2023/03/29 08:09:50;;;;;;;;;;;7.20;99.90;;;;;;5077627;28;2640;-71
2023/03/29 08:12:17;;;;;;;;;;;7.20;99.90;;;;;;5099982;28;1431;-71
2023/03/29 08:14:43;;;;;;;;;;;7.10;99.90;;;;;;5098628;28;1144;-70
2023/03/29 08:17:14;;;;;;;;;;;7.00;99.90;;;;;;5093216;28;1116;-71
2023/03/29 08:19:46;;;;;;;;;;;7.10;99.90;;;;;;5127573;27;1972;-71
2023/03/29 08:22:13;;;;;;;;;;;7.10;99.90;;;;;;5136884;27;1111;-71
2023/03/29 08:25:04;;;;;;;;;;;7.10;99.90;;;;;;5102091;28;1270;-71
2023/03/29 08:27:36;;;;;;;;;;;6.90;99.90;;;;;;5132735;27;1144;-71
2023/03/29 08:30:04;;;;;;;;;;;7.10;99.90;;;;;;5093592;28;1274;-71
2023/03/29 08:32:32;;;;;;;;;;;7.10;99.90;;;;;;5093308;28;1179;-71
2023/03/29 08:35:00;;;;;;;;;;;7.20;99.90;;;;;;5093009;28;1216;-71
2023/03/29 08:37:33;;;;;;;;;;;7.60;99.90;;;;;;5092627;28;1191;-71
2023/03/29 08:39:59;;;;;;;;;;;7.50;99.90;;;;;;5093567;28;1969;-71
2023/03/29 08:42:50;;;;;;;;;;;7.60;99.90;;;;;;5098822;28;1168;-70
2023/03/29 08:45:30;;;;;;;;;;;7.60;99.90;;;;;;5100679;28;1306;-71
2023/03/29 08:48:04;;;;;;;;;;;7.60;99.90;;;;;;5101014;28;1285;-70
2023/03/29 08:50:35;;;;;;;;;;;7.70;99.90;;;;;;5119689;27;1039;-71
2023/03/29 08:53:04;;;;;;;;;;;7.90;99.90;;;;;;5082831;28;1084;-71
2023/03/29 08:55:51;;;;;;;;;;;8.10;99.90;;;;;;5100619;28;1121;-71
2023/03/29 08:58:42;;;;;;;;;;;8.30;99.90;;;;;;5116617;27;1977;-71
2023/03/29 09:01:10;;;;;;;;;;;8.30;99.90;;;;;;5143414;27;1062;-71
2023/03/29 09:03:47;;;;;;;;;;;8.30;99.90;;;;;;5103062;28;1137;-71
2023/03/29 09:06:21;;;;;;;;;;;8.20;99.90;;;;;;5092980;28;1304;-71
2023/03/29 09:08:49;;;;;;;;;;;8.20;99.90;;;;;;5097573;28;3009;-71
2023/03/29 09:11:26;;;;;;;;;;;8.40;99.90;;;;;;5073087;28;3313;-71
2023/03/29 09:13:59;;;;;;;;;;;8.60;99.90;;;;;;5076215;28;1184;-71
2023/03/29 09:16:47;;;;;;;;;;;8.40;99.90;;;;;;5109392;27;2935;-71
2023/03/29 09:19:14;;;;;;;;;;;8.40;99.90;;;;;;5074892;28;2001;-71
2023/03/29 09:21:45;;;;;;;;;;;8.40;99.90;;;;;;5093034;28;1149;-71
2023/03/29 09:24:17;;;;;;;;;;;8.50;99.90;;;;;;5091495;28;1121;-71
2023/03/29 09:27:01;;;;;;;;;;;9.30;99.90;;;;;;5091513;28;3008;-71
2023/03/29 09:29:30;;;;;;;;;;;;;;;;;;5110917;28;1195;-71
2023/03/29 09:31:57;;;;;;;;;;;9.40;99.90;;;;;;5092579;28;1179;-71
2023/03/29 09:34:29;;;;;;;;;;;9.30;99.90;;;;;;5074241;28;1150;-71
2023/03/29 09:37:01;;;;;;;;;;;9.10;99.90;;;;;;5092295;28;1236;-71
2023/03/29 09:39:27;;;;;;;;;;;9.30;99.90;;;;;;5093452;28;1918;-71
2023/03/29 09:42:03;;;;;;;;;;;9.30;99.90;;;;;;5098387;28;1555;-71
2023/03/29 09:44:31;;;;;;;;;;;9.10;99.90;;;;;;5134559;27;1505;-71
2023/03/29 09:47:07;;;;;;;;;;;9.10;99.90;;;;;;5110931;27;1270;-71
2023/03/29 09:49:36;;;;;;;;;;;9.30;99.90;;;;;;5126414;27;1258;-71
2023/03/29 09:52:07;;;;;;;;;;;9.30;99.90;;;;;;5091798;28;1179;-71
2023/03/29 09:54:33;;;;;;;;;;;9.40;99.90;;;;;;5074356;28;997;-71
2023/03/29 09:57:27;;;;;;;;;;;9.30;99.90;;;;;;5110074;28;1028;-71
2023/03/29 09:59:53;;;;;;;;;;;9.20;99.90;;;;;;5109843;28;1981;-71
2023/03/29 10:02:19;;;;;;;;;;;9.30;99.90;;;;;;5101763;28;1595;-70
2023/03/29 10:04:51;;;;;;;;;;;9.30;99.90;;;;;;5100916;27;1223;-71
2023/03/29 10:07:19;;;;;;;;;;;9.30;99.90;;;;;;5111245;27;1313;-71
2023/03/29 10:09:50;;;;;;;;;;;9.40;99.90;;;;;;5085239;28;1549;-71
2023/03/29 10:12:19;;;;;;;;;;;9.40;99.90;;;;;;5074976;28;1339;-71
2023/03/29 10:14:47;;;;;;;;;;;9.40;99.90;;;;;;5091357;28;1129;-71
2023/03/29 10:17:14;;;;;;;;;;;9.40;99.90;;;;;;5109565;28;1136;-71
2023/03/29 10:19:46;;;;;;;;;;;9.50;99.90;;;;;;5109472;28;1926;-71
2023/03/29 10:22:16;;;;;;;;;;;9.60;99.90;;;;;;5108995;28;1084;-71
2023/03/29 10:24:46;;;;;;;;;;;9.60;99.90;;;;;;5091081;28;1093;-71
2023/03/29 10:27:12;;;;;;;;;;;9.50;99.90;;;;;;5090792;28;1248;-71
2023/03/29 10:29:39;;;;;;;;;;;9.50;99.90;;;;;;5109311;28;1124;-71
2023/03/29 10:32:16;;;;;;;;;;;9.40;99.90;;;;;;5091075;28;1112;-71
2023/03/29 10:34:42;;;;;;;;;;;9.30;99.90;;;;;;5110151;28;1257;-71
2023/03/29 10:37:09;;;;;;;;;;;9.40;99.90;;;;;;5108498;28;1141;-71
2023/03/29 10:39:35;;;;;;;;;;;9.30;99.90;;;;;;5108799;28;1902;-71
2023/03/29 10:42:03;;;;;;;;;;;9.30;99.90;;;;;;5126190;27;1124;-71
2023/03/29 10:44:30;;;;;;;;;;;9.40;99.90;;;;;;5113705;27;1694;-71
2023/03/29 10:47:05;;;;;;;;;;;9.40;99.90;;;;;;5109633;28;1047;-71
2023/03/29 10:49:38;;;;;;;;;;;9.30;99.90;;;;;;5109368;28;1101;-71
2023/03/29 10:52:05;;;;;;;;;;;9.30;99.90;;;;;;5109553;28;1158;-71
2023/03/29 10:54:31;;;;;;;;;;;9.30;99.90;;;;;;5090385;28;1137;-71
2023/03/29 10:56:57;;;;;;;;;;;9.30;99.90;;;;;;5108513;28;1175;-71
2023/03/29 10:59:23;;;;;;;;;;;9.30;99.90;;;;;;5091069;28;1909;-71
2023/03/29 11:02:08;;;;;;;;;;;9.40;99.90;;;;;;5108786;28;1108;-71
2023/03/29 11:04:41;;;;;;;;;;;9.40;99.90;;;;;;5108481;28;1125;-71
2023/03/29 11:07:16;;;;;;;;;;;9.40;99.90;;;;;;5109589;28;1639;-71
2023/03/29 11:09:52;;;;;;;;;;;9.40;99.90;;;;;;5109244;28;1108;-71
2023/03/29 11:12:23;;;;;;;;;;;9.40;99.90;;;;;;5093302;28;1282;-71
2023/03/29 11:15:02;;;;;;;;;;;9.50;99.90;;;;;;5109540;28;1108;-71
2023/03/29 11:17:39;;;;;;;;;;;9.50;99.90;;;;;;5108620;28;1175;-71
2023/03/29 11:20:18;;;;;;;;;;;9.70;99.90;;;;;;5090683;28;1906;-71
2023/03/29 11:22:51;;;;;;;;;;;9.80;99.90;;;;;;5109385;28;991;-71
2023/03/29 11:25:28;;;;;;;;;;;9.90;99.90;;;;;;5108368;28;1176;-71
2023/03/29 11:28:19;;;;;;;;;;;10.10;99.90;;;;;;5115503;28;1229;-71
2023/03/29 11:31:00;;;;;;;;;;;10.20;99.90;;;;;;5105502;28;1155;-71
2023/03/29 11:33:44;;;;;;;;;;;10.40;99.90;;;;;;5108427;28;1067;-71
2023/03/29 11:36:18;;;;;;;;;;;10.70;99.90;;;;;;5113309;28;1156;-71
2023/03/29 11:38:56;;;;;;;;;;;10.90;99.90;;;;;;5111781;28;1976;-71
2023/03/29 11:41:26;;;;;;;;;;;11.00;99.90;;;;;;5113302;28;1188;-71
2023/03/29 11:44:12;;;;;;;;;;;11.30;99.90;;;;;;5112882;28;1374;-71
2023/03/29 11:46:45;;;;;;;;;;;11.20;99.90;;;;;;5094152;27;1160;-71
2023/03/29 11:49:14;;;;;;;;;;;11.10;99.90;;;;;;5133937;27;1067;-71
2023/03/29 11:51:42;;;;;;;;;;;11.10;99.90;;;;;;5133228;27;1275;-71
2023/03/29 11:54:08;;;;;;;;;;;11.20;99.90;;;;;;5148062;27;1115;-71
2023/03/29 11:56:38;;;;;;;;;;;11.20;99.90;;;;;;5117510;27;1131;-71
2023/03/29 11:59:11;;;;;;;;;;;11.10;99.90;;;;;;5088187;28;3010;-71
2023/03/29 12:01:40;;;;;;;;;;;11.10;99.90;;;;;;5111312;28;1148;-71
2023/03/29 12:04:10;;;;;;;;;;;11.10;99.90;;;;;;5111611;28;2959;-71
2023/03/29 12:06:46;;;;;;;;;;;11.30;99.90;;;;;;5111843;28;1188;-71
2023/03/29 12:09:30;;;;;;;;;;;11.20;99.90;;;;;;5115240;27;1151;-71
2023/03/29 12:12:04;;;;;;;;;;;11.20;99.90;;;;;;5094080;28;2067;-71
2023/03/29 12:14:40;;;;;;;;;;;11.50;99.90;;;;;;5111350;28;1301;-71
2023/03/29 12:17:10;;;;;;;;;;;11.60;99.90;;;;;;5093512;28;1099;-71
2023/03/29 12:19:40;;;;;;;;;;;11.50;99.90;;;;;;5112258;28;1914;-71
2023/03/29 12:22:07;;;;;;;;;;;11.70;99.90;;;;;;5092434;28;1163;-71
2023/03/29 12:24:39;;;;;;;;;;;11.80;99.90;;;;;;5128180;27;1135;-71
2023/03/29 12:27:07;;;;;;;;;;;11.70;99.90;;;;;;5112213;28;1252;-71
2023/03/29 12:29:38;;;;;;;;;;;11.60;99.90;;;;;;5130148;27;1063;-71
2023/03/29 12:32:13;;;;;;;;;;;11.60;99.90;;;;;;5094966;28;1181;-71
2023/03/29 12:34:55;;;;;;;;;;;11.70;99.90;;;;;;5111944;28;1168;-71
2023/03/29 12:37:51;;;;;;;;;;;11.70;99.90;;;;;;5080748;28;1108;-71
2023/03/29 12:40:42;;;;;;;;;;;11.70;99.90;;;;;;5111426;28;1918;-71
2023/03/29 12:43:36;;;;;;;;;;;12.00;99.90;;;;;;5111444;28;1339;-71
2023/03/29 12:46:32;;;;;;;;;;;12.30;99.90;;;;;;5110542;28;1322;-71
2023/03/29 12:49:06;;;;;;;;;;;12.30;99.90;;;;;;5089616;28;1203;-71
2023/03/29 12:51:33;;;;;;;;;;;12.50;99.90;;;;;;5111524;28;1457;-71
2023/03/29 12:54:06;;;;;;;;;;;12.50;99.90;;;;;;5111750;28;1201;-71
2023/03/29 12:56:38;;;;;;;;;;;12.60;99.90;;;;;;5075683;28;1111;-71
2023/03/29 12:59:06;;;;;;;;;;;12.80;99.90;;;;;;5110891;28;1913;-71
2023/03/29 13:01:33;;;;;;;;;;;12.80;99.90;;;;;;5111622;28;1151;-71
2023/03/29 13:03:59;;;;;;;;;;;12.90;99.90;;;;;;5110647;28;1117;-71
2023/03/29 13:06:30;;;;;;;;;;;12.70;99.90;;;;;;5099091;27;1339;-71
2023/03/29 13:08:57;;;;;;;;;;;12.60;99.90;;;;;;5132247;27;1178;-71
2023/03/29 13:11:26;;;;;;;;;;;12.70;99.90;;;;;;5128921;27;1278;-71
2023/03/29 13:13:52;;;;;;;;;;;12.70;99.90;;;;;;5111250;28;1172;-71
2023/03/29 13:16:26;;;;;;;;;;;12.70;99.90;;;;;;5110645;28;1014;-71
2023/03/29 13:18:59;;;;;;;;;;;12.70;99.90;;;;;;5110637;28;1909;-71
2023/03/29 13:21:39;;;;;;;;;;;12.60;99.90;;;;;;5110530;28;1119;-71
2023/03/29 13:24:16;;;;;;;;;;;12.60;99.90;;;;;;5110191;28;1112;-71
2023/03/29 13:26:45;;;;;;;;;;;12.80;99.90;;;;;;5110749;28;1319;-71
2023/03/29 13:29:15;;;;;;;;;;;12.60;99.90;;;;;;5126669;27;1151;-71
2023/03/29 13:31:44;;;;;;;;;;;12.80;99.90;;;;;;5126014;27;1386;-71
2023/03/29 13:34:10;;;;;;;;;;;12.80;99.90;;;;;;5115400;27;1245;-71
2023/03/29 13:36:36;;;;;;;;;;;12.80;99.90;;;;;;5122293;27;1116;-72
2023/03/29 13:39:04;;;;;;;;;;;12.60;99.90;;;;;;5110459;28;1906;-72
2023/03/29 13:41:32;;;;;;;;;;;12.70;99.90;;;;;;5110409;28;1136;-72
2023/03/29 13:43:58;;;;;;;;;;;12.70;99.90;;;;;;5110628;28;1354;-72
2023/03/29 13:46:35;;;;;;;;;;;12.60;99.90;;;;;;5091648;28;1182;-72
2023/03/29 13:49:04;;;;;;;;;;;12.50;99.90;;;;;;5110836;28;1112;-72
2023/03/29 13:51:32;;;;;;;;;;;12.40;99.90;;;;;;5109559;28;1090;-72
2023/03/29 13:54:09;;;;;;;;;;;12.50;99.90;;;;;;5109909;28;1073;-72
2023/03/29 13:56:52;;;;;;;;;;;12.50;99.90;;;;;;5110152;28;1167;-72
2023/03/29 13:59:19;;;;;;;;;;;12.50;99.90;;;;;;5108963;28;1909;-72
2023/03/29 14:01:46;;;;;;;;;;;12.50;99.90;;;;;;5110541;28;1081;-72
2023/03/29 14:04:15;;;;;;;;;;;12.50;99.90;;;;;;5091630;28;1584;-72
2023/03/29 14:06:43;;;;;;;;;;;12.70;99.90;;;;;;5109144;28;1279;-72
2023/03/29 14:09:11;;;;;;;;;;;12.80;99.90;;;;;;5106467;27;2905;-72
2023/03/29 14:11:37;;;;;;;;;;;12.80;99.90;;;;;;5109555;28;1131;-72
2023/03/29 14:14:04;;;;;;;;;;;12.90;99.90;;;;;;5109279;28;1104;-72
2023/03/29 14:16:34;;;;;;;;;;;13.00;99.90;;;;;;5109493;28;1120;-72
2023/03/29 14:19:02;;;;;;;;;;;13.00;99.90;;;;;;5091796;28;1910;-72
2023/03/29 14:21:28;;;;;;;;;;;13.00;99.90;;;;;;5088245;28;1262;-72
2023/03/29 14:23:56;;;;;;;;;;;13.10;99.90;;;;;;5111741;27;1278;-72
2023/03/29 14:26:24;;;;;;;;;;;13.10;99.90;;;;;;5109080;28;1255;-72
2023/03/29 14:28:52;;;;;;;;;;;12.90;99.90;;;;;;5109398;27;1294;-72
2023/03/29 14:31:20;;;;;;;;;;;13.00;99.90;;;;;;5106606;28;1282;-72
2023/03/29 14:33:50;;;;;;;;;;;13.00;99.90;;;;;;5109186;28;1267;-72
2023/03/29 14:36:16;;;;;;;;;;;12.90;99.90;;;;;;5089297;28;3064;-72
2023/03/29 14:38:44;;;;;;;;;;;12.90;99.90;;;;;;5090321;28;1364;-72
2023/03/29 14:41:10;;;;;;;;;;;12.90;99.90;;;;;;5108484;28;2930;-72
2023/03/29 14:43:36;;;;;;;;;;;12.90;99.90;;;;;;5085518;28;2305;-72
2023/03/29 14:46:04;;;;;;;;;;;13.00;99.90;;;;;;5109607;28;1239;-72
2023/03/29 14:48:32;;;;;;;;;;;13.10;99.90;;;;;;5090457;28;1343;-72
2023/03/29 14:50:58;;;;;;;;;;;13.10;99.90;;;;;;5110604;28;1725;-72
2023/03/29 14:53:25;;;;;;;;;;;13.00;99.90;;;;;;5089156;28;2671;-72
2023/03/29 14:55:51;;;;;;;;;;;12.90;99.90;;;;;;5108850;28;1611;-72
2023/03/29 14:58:22;;;;;;;;;;;12.90;99.90;;;;;;5108826;28;1572;-72
2023/03/29 15:00:49;;;;;;;;;;;13.00;99.90;;;;;;5131234;27;1972;-72
2023/03/29 15:03:15;;;;;;;;;;;13.00;99.90;;;;;;5110066;28;1256;-72